createdAt,value
2023-03-13T00:01:46.797Z,100625.31
2023-03-13T00:04:13.567Z,100646.53
2023-03-13T00:06:40.641Z,100638.03
2023-03-13T00:09:09.581Z,100611.19
2023-03-13T00:11:38.958Z,100619.09
2023-03-13T00:14:06.691Z,100609.41
2023-03-13T00:16:35.638Z,100616.59
2023-03-13T00:19:02.385Z,100624.34
2023-03-13T00:21:30.701Z,100616.97
2023-03-13T00:23:59.309Z,100612.19
2023-03-13T00:26:27.397Z,100606.03
2023-03-13T00:28:54.256Z,100606.31
2023-03-13T00:31:26.769Z,100614.47
2023-03-13T00:33:57.178Z,100618.84
2023-03-13T00:36:26.341Z,100624.84
2023-03-13T00:38:53.912Z,100623.63
2023-03-13T00:41:29.311Z,100617.00
2023-03-13T00:43:56.648Z,100613.41
2023-03-13T00:46:25.742Z,100600.94
2023-03-13T00:48:52.828Z,100605.44
2023-03-13T00:51:21.146Z,100609.88
2023-03-13T00:53:48.314Z,100604.28
2023-03-13T00:56:17.455Z,100604.09
2023-03-13T00:58:45.865Z,100589.91
2023-03-13T01:01:14.392Z,100590.69
2023-03-13T01:03:42.990Z,100581.06
2023-03-13T01:06:13.709Z,100576.47
2023-03-13T01:08:40.874Z,100562.97
2023-03-13T01:11:10.980Z,100555.25
2023-03-13T01:13:37.951Z,100572.03
2023-03-13T01:16:11.718Z,100570.13
2023-03-13T01:18:41.223Z,100573.91
2023-03-13T01:21:08.011Z,100572.09
2023-03-13T01:23:34.863Z,100569.44
2023-03-13T01:26:01.899Z,100572.09
2023-03-13T01:28:28.484Z,100563.25
2023-03-13T01:30:55.207Z,100565.91
2023-03-13T01:33:22.170Z,100556.13
2023-03-13T01:35:48.814Z,100557.16
2023-03-13T01:38:15.429Z,100565.16
2023-03-13T01:40:48.250Z,100556.28
2023-03-13T01:43:27.930Z,100553.91
2023-03-13T01:46:03.982Z,100554.09
2023-03-13T01:48:48.790Z,100549.91
2023-03-13T01:51:15.284Z,100545.63
2023-03-13T01:53:46.053Z,100547.53
2023-03-13T01:56:18.992Z,100554.28
2023-03-13T01:58:47.853Z,100546.28
2023-03-13T02:01:15.475Z,100542.88
2023-03-13T02:03:42.860Z,100544.56
2023-03-13T02:06:11.156Z,100538.28
2023-03-13T02:08:49.516Z,100535.63
2023-03-13T02:11:24.847Z,100537.03
2023-03-13T02:13:53.619Z,100536.97
2023-03-13T02:16:21.974Z,100541.16
2023-03-13T02:18:48.938Z,100540.22
2023-03-13T02:21:32.515Z,100531.06
2023-03-13T02:24:21.252Z,100536.59
2023-03-13T02:26:47.807Z,100530.28
2023-03-13T02:29:18.424Z,100531.81
2023-03-13T02:31:47.352Z,100533.06
2023-03-13T02:34:20.746Z,100535.06
2023-03-13T02:36:48.170Z,100538.00
2023-03-13T02:39:18.557Z,100542.28
2023-03-13T02:41:46.917Z,100537.91
2023-03-13T02:44:13.488Z,100537.16
2023-03-13T02:46:52.513Z,100537.16
2023-03-13T02:49:29.115Z,100537.41
2023-03-13T02:52:06.024Z,100538.84
2023-03-13T02:54:35.919Z,100529.34
2023-03-13T02:57:04.756Z,100532.09
2023-03-13T02:59:32.151Z,100542.81
2023-03-13T03:01:58.798Z,100552.66
2023-03-13T03:04:26.726Z,100561.69
2023-03-13T03:06:53.784Z,100562.59
2023-03-13T03:09:21.052Z,100563.75
2023-03-13T03:11:48.072Z,100550.22
2023-03-13T03:14:15.242Z,100552.91
2023-03-13T03:16:42.130Z,100554.06
2023-03-13T03:19:08.839Z,100552.50
2023-03-13T03:21:35.770Z,100544.09
2023-03-13T03:24:02.740Z,100548.28
2023-03-13T03:26:29.576Z,100556.97
2023-03-13T03:28:56.520Z,100551.13
2023-03-13T03:31:23.115Z,100555.09
2023-03-13T03:33:49.700Z,100561.63
2023-03-13T03:36:20.082Z,100565.66
2023-03-13T03:38:47.520Z,100556.91
2023-03-13T03:41:14.383Z,100549.00
2023-03-13T03:43:41.612Z,100548.59
2023-03-13T03:46:09.011Z,100554.16
2023-03-13T03:48:36.583Z,100563.28
2023-03-13T03:51:03.720Z,100561.91
2023-03-13T03:53:30.798Z,100562.47
2023-03-13T03:55:57.328Z,100569.56
2023-03-13T03:58:24.399Z,100573.84
2023-03-13T04:00:51.013Z,100560.72
2023-03-13T04:03:17.776Z,100580.91
2023-03-13T04:05:44.484Z,100575.78
2023-03-13T04:08:11.091Z,100585.88
2023-03-13T04:10:37.659Z,100578.28
2023-03-13T04:13:04.310Z,100584.91
2023-03-13T04:15:30.880Z,100582.72
2023-03-13T04:17:57.650Z,100579.75
2023-03-13T04:20:24.253Z,100584.56
2023-03-13T04:22:50.815Z,100584.31
2023-03-13T04:25:17.618Z,100587.06
2023-03-13T04:27:44.333Z,100588.69
2023-03-13T04:30:11.375Z,100597.44
2023-03-13T04:32:37.916Z,100597.28
2023-03-13T04:35:05.194Z,100598.06
2023-03-13T04:37:31.833Z,100590.41
2023-03-13T04:39:58.464Z,100594.09
2023-03-13T04:42:25.139Z,100598.22
2023-03-13T04:44:51.673Z,100596.28
2023-03-13T04:47:18.793Z,100593.69
2023-03-13T04:49:45.401Z,100585.19
2023-03-13T04:52:12.868Z,100598.00
2023-03-13T04:54:39.398Z,100594.25
2023-03-13T04:57:06.102Z,100598.63
2023-03-13T04:59:32.664Z,100615.25
2023-03-13T05:01:59.220Z,100611.31
2023-03-13T05:04:25.751Z,100606.59
2023-03-13T05:06:52.291Z,100612.28
2023-03-13T05:09:18.834Z,100607.75
2023-03-13T05:11:45.385Z,100608.59
2023-03-13T05:14:11.896Z,100621.22
2023-03-13T05:16:39.166Z,100621.22
2023-03-13T05:19:05.779Z,100627.28
2023-03-13T05:21:32.517Z,100619.06
2023-03-13T05:23:59.145Z,100617.88
2023-03-13T05:26:25.748Z,100625.63
2023-03-13T05:28:52.370Z,100613.06
2023-03-13T05:31:19.090Z,100633.41
2023-03-13T05:33:45.859Z,100633.50
2023-03-13T05:36:12.437Z,100628.97
2023-03-13T05:38:39.139Z,100637.72
2023-03-13T05:41:05.685Z,100630.59
2023-03-13T05:43:32.324Z,100630.59
2023-03-13T05:45:58.944Z,100634.97
2023-03-13T05:48:26.830Z,100638.22
2023-03-13T05:50:53.386Z,100635.38
2023-03-13T05:53:20.021Z,100629.78
2023-03-13T05:55:46.555Z,100626.78
2023-03-13T05:58:13.166Z,100626.47
2023-03-13T06:00:39.756Z,100636.75
2023-03-13T06:03:06.328Z,100642.56
2023-03-13T06:05:32.885Z,100627.38
2023-03-13T06:07:59.435Z,100630.88
2023-03-13T06:10:26.016Z,100622.81
2023-03-13T06:12:54.390Z,100625.47
2023-03-13T06:15:21.057Z,100624.06
2023-03-13T06:17:47.843Z,100617.34
2023-03-13T06:20:14.452Z,100618.78
2023-03-13T06:22:42.073Z,100619.50
2023-03-13T06:25:09.122Z,100620.75
2023-03-13T06:27:35.854Z,100621.31
2023-03-13T06:30:03.428Z,100614.19
2023-03-13T06:32:30.180Z,100619.84
2023-03-13T06:34:56.926Z,100617.72
2023-03-13T06:37:23.533Z,100614.03
2023-03-13T06:39:50.101Z,100618.97
2023-03-13T06:42:16.616Z,100622.06
2023-03-13T06:44:43.245Z,100628.34
2023-03-13T06:47:09.860Z,100627.78
2023-03-13T06:49:36.553Z,100620.91
2023-03-13T06:52:03.227Z,100620.03
2023-03-13T06:54:30.228Z,100617.66
2023-03-13T06:56:56.843Z,100624.81
2023-03-13T06:59:23.406Z,100622.22
2023-03-13T07:01:50.140Z,100622.50
2023-03-13T07:04:16.910Z,100611.81
2023-03-13T07:06:43.601Z,100608.88
2023-03-13T07:09:10.949Z,100614.00
2023-03-13T07:11:37.749Z,100624.56
2023-03-13T07:14:15.792Z,100618.25
2023-03-13T07:16:43.881Z,100617.44
2023-03-13T07:19:10.673Z,100621.78
2023-03-13T07:21:37.401Z,100613.84
2023-03-13T07:24:04.394Z,100614.78
2023-03-13T07:26:32.602Z,100608.19
2023-03-13T07:28:59.348Z,100603.50
2023-03-13T07:31:26.298Z,100609.91
2023-03-13T07:33:56.554Z,100611.28
2023-03-13T07:36:23.830Z,100602.94
2023-03-13T07:38:51.611Z,100598.47
2023-03-13T07:41:18.921Z,100603.50
2023-03-13T07:43:46.226Z,100599.84
2023-03-13T07:46:15.787Z,100597.94
2023-03-13T07:48:43.394Z,100593.78
2023-03-13T07:51:20.555Z,100594.31
2023-03-13T07:53:51.216Z,100578.41
2023-03-13T07:56:20.387Z,100577.03
2023-03-13T07:58:47.038Z,100567.81
2023-03-13T08:01:16.500Z,100577.66
2023-03-13T08:03:44.195Z,100574.53
2023-03-13T08:06:13.395Z,100568.56
2023-03-13T08:08:40.995Z,100564.38
2023-03-13T08:11:11.175Z,100556.16
2023-03-13T08:13:38.362Z,100565.09
2023-03-13T08:16:08.045Z,100558.97
2023-03-13T08:18:36.514Z,100555.72
2023-03-13T08:21:14.747Z,100549.41
2023-03-13T08:23:41.966Z,100548.47
2023-03-13T08:26:14.885Z,100544.38
2023-03-13T08:28:42.503Z,100548.81
2023-03-13T08:31:10.342Z,100533.03
2023-03-13T08:33:37.273Z,100526.47
2023-03-13T08:36:33.999Z,100520.53
2023-03-13T08:39:03.568Z,100527.19
2023-03-13T08:41:34.868Z,100515.53
2023-03-13T08:44:02.211Z,100514.59
2023-03-13T08:46:34.778Z,100516.69
2023-03-13T08:49:02.600Z,100510.63
2023-03-13T08:51:29.699Z,100515.84
2023-03-13T08:53:56.798Z,100513.31
2023-03-13T08:56:28.723Z,100500.06
2023-03-13T08:58:58.233Z,100509.94
2023-03-13T09:01:27.549Z,100500.19
2023-03-13T09:03:54.389Z,100502.09
2023-03-13T09:06:21.418Z,100481.09
2023-03-13T09:08:48.345Z,100487.16
2023-03-13T09:11:17.387Z,100484.81
2023-03-13T09:13:46.794Z,100489.63
2023-03-13T09:16:16.528Z,100487.78
2023-03-13T09:18:44.304Z,100497.09
2023-03-13T09:21:14.100Z,100479.78
2023-03-13T09:23:40.827Z,100481.13
2023-03-13T09:26:07.509Z,100471.16
2023-03-13T09:28:34.615Z,100480.69
2023-03-13T09:31:08.942Z,100467.28
2023-03-13T09:33:36.058Z,100474.16
2023-03-13T09:36:02.821Z,100472.25
2023-03-13T09:38:29.930Z,100466.19
2023-03-13T09:41:06.442Z,100466.41
2023-03-13T09:43:58.371Z,100461.03
2023-03-13T09:46:46.153Z,100455.06
2023-03-13T09:49:27.547Z,100459.19
2023-03-13T09:52:01.505Z,100462.72
2023-03-13T09:54:46.275Z,100446.16
2023-03-13T09:57:15.612Z,100435.38
2023-03-13T09:59:48.385Z,100443.72
2023-03-13T10:02:25.607Z,100424.13
2023-03-13T10:04:58.238Z,100429.06
2023-03-13T10:07:24.828Z,100410.84
2023-03-13T10:09:53.660Z,100407.06
2023-03-13T10:12:24.902Z,100420.09
2023-03-13T10:15:16.104Z,100403.97
2023-03-13T10:17:42.682Z,100409.91
2023-03-13T10:20:23.644Z,100397.91
2023-03-13T10:23:03.334Z,100407.53
2023-03-13T10:25:38.761Z,100399.66
2023-03-13T10:28:12.879Z,100396.94
2023-03-13T10:30:49.440Z,100401.06
2023-03-13T10:33:28.143Z,100393.25
2023-03-13T10:36:20.883Z,100386.41
2023-03-13T10:38:47.525Z,100394.06
2023-03-13T10:41:33.762Z,100398.22
2023-03-13T10:44:06.236Z,100389.81
2023-03-13T10:46:35.999Z,100394.16
2023-03-13T10:49:04.868Z,100381.69
2023-03-13T10:51:48.632Z,100377.50
2023-03-13T10:54:25.799Z,100364.03
2023-03-13T10:57:07.307Z,100352.88
2023-03-13T10:59:40.757Z,100355.22
2023-03-13T11:02:34.035Z,100359.28
2023-03-13T11:05:01.984Z,100349.41
2023-03-13T11:07:38.550Z,100349.25
2023-03-13T11:10:13.843Z,100345.00
2023-03-13T11:12:45.573Z,100337.03
2023-03-13T11:15:18.946Z,100346.16
2023-03-13T11:17:51.368Z,100331.53
2023-03-13T11:20:25.921Z,100331.78
2023-03-13T11:23:16.778Z,100326.06
2023-03-13T11:25:58.006Z,100331.88
2023-03-13T11:29:09.259Z,100320.00
2023-03-13T11:31:46.232Z,100328.28
2023-03-13T11:34:25.873Z,100309.78
2023-03-13T11:37:03.518Z,100300.31
2023-03-13T11:40:07.934Z,100298.63
2023-03-13T11:42:42.507Z,100304.94
2023-03-13T11:45:12.028Z,100281.19
2023-03-13T11:48:07.409Z,100277.22
2023-03-13T11:50:42.376Z,100278.31
2023-03-13T11:53:10.770Z,100277.19
2023-03-13T11:55:43.364Z,100270.06
2023-03-13T11:58:19.061Z,100271.97
2023-03-13T12:00:57.864Z,100249.47
2023-03-13T12:03:48.876Z,100264.13
2023-03-13T12:06:27.945Z,100241.47
2023-03-13T12:09:02.314Z,100236.56
2023-03-13T12:11:38.669Z,100242.75
2023-03-13T12:14:25.290Z,100228.41
2023-03-13T12:16:59.197Z,100231.72
2023-03-13T12:19:45.801Z,100222.28
2023-03-13T12:22:20.277Z,100211.91
2023-03-13T12:25:10.720Z,100202.94
2023-03-13T12:27:43.072Z,100218.72
2023-03-13T12:30:41.083Z,100208.59
2023-03-13T12:33:15.804Z,100201.13
2023-03-13T12:35:47.414Z,100202.22
2023-03-13T12:38:19.744Z,100190.75
2023-03-13T12:41:17.837Z,100188.91
2023-03-13T12:44:00.581Z,100200.56
2023-03-13T12:46:43.227Z,100174.78
2023-03-13T12:49:18.859Z,100172.78
2023-03-13T12:52:10.389Z,100152.88
2023-03-13T12:54:55.683Z,100139.53
2023-03-13T12:58:00.925Z,100161.09
2023-03-13T13:00:30.898Z,100148.03
2023-03-13T13:03:18.239Z,100139.53
2023-03-13T13:06:00.101Z,100135.78
2023-03-13T13:08:27.187Z,100128.78
2023-03-13T13:10:53.807Z,100119.78
2023-03-13T13:13:32.780Z,100118.25
2023-03-13T13:16:18.546Z,100121.91
2023-03-13T13:18:45.159Z,100133.00
2023-03-13T13:21:26.596Z,100140.22
2023-03-13T13:23:56.454Z,100143.28
2023-03-13T13:26:36.808Z,100131.25
2023-03-13T13:29:12.356Z,100132.94
2023-03-13T13:31:51.975Z,100114.91
2023-03-13T13:34:31.103Z,100118.53
2023-03-13T13:36:59.458Z,100112.59
2023-03-13T13:39:50.440Z,100105.16
2023-03-13T13:42:45.563Z,100109.09
2023-03-13T13:45:14.920Z,100096.06
2023-03-13T13:47:44.639Z,100085.75
2023-03-13T13:50:19.472Z,100089.25
2023-03-13T13:52:47.664Z,100084.97
2023-03-13T13:55:26.452Z,100082.38
2023-03-13T13:58:04.324Z,100079.56
2023-03-13T14:01:00.773Z,100067.78
2023-03-13T14:03:30.708Z,100058.84
2023-03-13T14:06:17.809Z,100077.81
2023-03-13T14:08:47.066Z,100061.34
2023-03-13T14:11:36.764Z,100069.63
2023-03-13T14:14:19.700Z,100079.81
2023-03-13T14:16:51.637Z,100074.75
2023-03-13T14:19:42.944Z,100082.78
2023-03-13T14:22:11.330Z,100054.09
2023-03-13T14:24:38.362Z,100074.50
2023-03-13T14:27:16.429Z,100071.63
2023-03-13T14:30:00.015Z,100059.66
2023-03-13T14:32:26.764Z,100069.63
2023-03-13T14:34:53.420Z,100066.91
2023-03-13T14:37:37.809Z,100062.72
2023-03-13T14:40:24.633Z,100052.88
2023-03-13T14:42:57.706Z,100061.66
2023-03-13T14:45:33.454Z,100053.97
2023-03-13T14:48:18.957Z,100064.59
2023-03-13T14:50:45.840Z,100063.09
2023-03-13T14:53:17.325Z,100055.75
2023-03-13T14:55:44.446Z,100056.81
2023-03-13T14:58:19.978Z,100062.81
2023-03-13T15:00:48.694Z,100053.88
2023-03-13T15:03:18.971Z,100049.50
2023-03-13T15:05:48.839Z,100044.00
2023-03-13T15:08:21.686Z,100056.88
2023-03-13T15:10:49.500Z,100039.69
2023-03-13T15:13:34.085Z,100052.63
2023-03-13T15:16:01.893Z,100048.41
2023-03-13T15:18:31.716Z,100038.66
2023-03-13T15:21:17.434Z,100038.03
2023-03-13T15:24:11.192Z,100025.94
2023-03-13T15:26:37.765Z,100016.66
2023-03-13T15:29:04.524Z,100019.16
2023-03-13T15:31:31.275Z,100011.06
2023-03-13T15:34:00.165Z,100019.50
2023-03-13T15:36:28.721Z,100023.31
2023-03-13T15:38:55.788Z,100017.59
2023-03-13T15:41:22.778Z,100009.84
2023-03-13T15:43:52.744Z,100002.69
2023-03-13T15:46:20.592Z,100004.00
2023-03-13T15:48:48.014Z,100005.94
2023-03-13T15:51:16.698Z,100016.03
2023-03-13T15:53:44.324Z,99990.59
2023-03-13T15:56:20.157Z,99988.16
2023-03-13T15:58:48.404Z,99989.84
2023-03-13T16:01:16.872Z,99999.59
2023-03-13T16:03:43.770Z,99995.34
2023-03-13T16:06:28.084Z,100001.97
2023-03-13T16:08:54.625Z,100001.31
2023-03-13T16:11:21.247Z,99998.13
2023-03-13T16:13:47.812Z,99987.84
2023-03-13T16:16:20.985Z,99985.19
2023-03-13T16:18:49.638Z,99985.75
2023-03-13T16:21:21.012Z,99987.84
2023-03-13T16:23:48.215Z,99993.44
2023-03-13T16:26:20.638Z,99989.88
2023-03-13T16:28:48.126Z,99988.38
2023-03-13T16:31:33.569Z,99989.06
2023-03-13T16:34:00.751Z,99982.81
2023-03-13T16:36:31.123Z,99980.47
2023-03-13T16:38:59.403Z,99990.47
2023-03-13T16:41:27.783Z,99994.72
2023-03-13T16:43:55.716Z,100008.75
2023-03-13T16:46:30.381Z,99994.22
2023-03-13T16:48:58.455Z,99988.47
2023-03-13T16:51:27.436Z,99988.66
2023-03-13T16:53:56.216Z,99985.41
2023-03-13T16:56:33.979Z,99987.59
2023-03-13T16:59:02.279Z,99990.97
2023-03-13T17:01:29.220Z,99989.97
2023-03-13T17:03:57.766Z,99994.00
2023-03-13T17:06:27.181Z,99998.22
2023-03-13T17:08:54.324Z,100000.38
2023-03-13T17:11:22.410Z,100012.72
2023-03-13T17:13:51.711Z,99995.13
2023-03-13T17:16:19.979Z,100001.34
2023-03-13T17:18:49.036Z,99999.81
2023-03-13T17:21:22.064Z,100002.00
2023-03-13T17:23:48.631Z,100000.16
2023-03-13T17:26:23.070Z,99996.25
2023-03-13T17:28:52.263Z,100001.63
2023-03-13T17:31:20.226Z,99988.47
2023-03-13T17:33:47.713Z,99991.25
2023-03-13T17:36:15.448Z,100001.56
2023-03-13T17:38:42.136Z,99998.50
2023-03-13T17:41:14.099Z,99998.47
2023-03-13T17:43:41.793Z,100011.75
2023-03-13T17:46:15.726Z,100017.63
2023-03-13T17:48:42.552Z,100018.81
2023-03-13T17:51:17.958Z,100014.56
2023-03-13T17:53:44.966Z,100007.97
2023-03-13T17:56:20.232Z,100006.88
2023-03-13T17:58:54.232Z,100003.00
2023-03-13T18:01:22.427Z,99999.09
2023-03-13T18:03:49.566Z,100001.41
2023-03-13T18:06:25.807Z,100002.34
2023-03-13T18:08:55.116Z,99993.88
2023-03-13T18:11:23.149Z,99997.19
2023-03-13T18:13:49.866Z,99997.13
2023-03-13T18:16:25.472Z,99988.50
2023-03-13T18:18:53.397Z,99980.00
2023-03-13T18:21:21.856Z,99979.16
2023-03-13T18:23:48.483Z,99981.47
2023-03-13T18:26:32.900Z,99985.31
2023-03-13T18:29:01.190Z,99987.81
2023-03-13T18:31:30.355Z,99983.72
2023-03-13T18:34:00.161Z,99974.38
2023-03-13T18:36:27.731Z,99980.25
2023-03-13T18:38:54.399Z,99976.16
2023-03-13T18:41:21.331Z,99966.84
2023-03-13T18:43:48.331Z,99959.38
2023-03-13T18:46:20.299Z,99962.97
2023-03-13T18:48:47.202Z,99960.06
2023-03-13T18:51:15.377Z,99956.13
2023-03-13T18:53:42.205Z,99953.59
2023-03-13T18:56:25.378Z,99953.22
2023-03-13T18:58:53.594Z,99949.41
2023-03-13T19:01:23.158Z,99943.78
2023-03-13T19:03:50.168Z,99940.84
2023-03-13T19:06:26.344Z,99935.06
2023-03-13T19:08:55.720Z,99933.84
2023-03-13T19:11:25.777Z,99926.50
2023-03-13T19:13:52.740Z,99923.13
2023-03-13T19:16:27.468Z,99917.41
2023-03-13T19:18:54.182Z,99933.72
2023-03-13T19:21:29.604Z,99914.47
2023-03-13T19:23:57.351Z,99911.09
2023-03-13T19:26:31.316Z,99906.16
2023-03-13T19:28:59.515Z,99902.78
2023-03-13T19:31:26.191Z,99911.41
2023-03-13T19:33:55.660Z,99901.47
2023-03-13T19:36:24.342Z,99894.53
2023-03-13T19:38:51.238Z,99900.94
2023-03-13T19:41:17.865Z,99895.84
2023-03-13T19:43:45.506Z,99906.91
2023-03-13T19:46:22.872Z,99891.91
2023-03-13T19:48:52.629Z,99892.34
2023-03-13T19:51:19.438Z,99898.88
2023-03-13T19:53:46.493Z,99897.19
2023-03-13T19:56:17.434Z,99896.75
2023-03-13T19:58:46.227Z,99897.91
2023-03-13T20:01:17.618Z,99897.34
2023-03-13T20:03:45.815Z,99902.75
2023-03-13T20:06:40.059Z,99907.03
2023-03-13T20:09:09.196Z,99902.06
2023-03-13T20:11:36.416Z,99907.88
2023-03-13T20:14:03.589Z,99897.41
2023-03-13T20:16:33.644Z,99892.47
2023-03-13T20:19:01.873Z,99903.97
2023-03-13T20:21:30.913Z,99896.19
2023-03-13T20:23:58.446Z,99895.78
2023-03-13T20:26:26.395Z,99891.53
2023-03-13T20:28:54.258Z,99892.94
2023-03-13T20:31:26.492Z,99888.88
2023-03-13T20:33:54.505Z,99876.84
2023-03-13T20:36:21.556Z,99883.81
2023-03-13T20:38:48.668Z,99878.88
2023-03-13T20:41:24.475Z,99869.38
2023-03-13T20:43:52.298Z,99867.97
2023-03-13T20:46:18.987Z,99854.84
2023-03-13T20:48:45.580Z,99852.28
2023-03-13T20:51:12.883Z,99855.97
2023-03-13T20:53:41.523Z,99850.88
2023-03-13T20:56:09.356Z,99836.06
2023-03-13T20:58:36.521Z,99830.53
2023-03-13T21:01:05.131Z,99819.22
2023-03-13T21:03:35.419Z,99822.47
2023-03-13T21:06:09.688Z,99820.09
2023-03-13T21:08:38.574Z,99822.34
2023-03-13T21:11:15.726Z,99804.41
2023-03-13T21:13:42.476Z,99800.88
2023-03-13T21:16:09.711Z,99794.38
2023-03-13T21:18:37.307Z,99789.31
2023-03-13T21:21:05.884Z,99796.94
2023-03-13T21:23:32.878Z,99794.63
2023-03-13T21:26:00.626Z,99785.06
2023-03-13T21:28:28.191Z,99778.13
2023-03-13T21:30:55.360Z,99766.97
2023-03-13T21:33:22.342Z,99770.34
2023-03-13T21:35:50.677Z,99757.72
2023-03-13T21:38:17.606Z,99762.41
2023-03-13T21:40:44.210Z,99756.47
2023-03-13T21:43:10.774Z,99761.53
2023-03-13T21:45:37.404Z,99754.34
2023-03-13T21:48:04.214Z,99753.91
2023-03-13T21:50:30.960Z,99757.03
2023-03-13T21:52:57.681Z,99757.41
2023-03-13T21:55:24.260Z,99761.66
2023-03-13T21:57:51.042Z,99757.28
2023-03-13T22:00:17.879Z,99751.22
2023-03-13T22:02:44.546Z,99753.22
2023-03-13T22:05:11.582Z,99741.63
2023-03-13T22:07:38.228Z,99743.59
2023-03-13T22:10:05.307Z,99741.47
2023-03-13T22:12:31.875Z,99730.75
2023-03-13T22:14:58.510Z,99735.94
2023-03-13T22:17:25.204Z,99730.59
2023-03-13T22:19:51.874Z,99718.31
2023-03-13T22:22:20.021Z,99719.72
2023-03-13T22:24:46.764Z,99721.03
2023-03-13T22:27:13.958Z,99719.72
2023-03-13T22:29:41.131Z,99712.13
2023-03-13T22:32:07.762Z,99707.88
2023-03-13T22:34:34.361Z,99710.81
2023-03-13T22:37:01.101Z,99708.28
2023-03-13T22:39:27.685Z,99696.97
2023-03-13T22:41:54.306Z,99682.31
2023-03-13T22:44:21.700Z,99681.31
2023-03-13T22:46:48.480Z,99678.63
2023-03-13T22:49:15.151Z,99683.28
2023-03-13T22:51:41.722Z,99691.88
2023-03-13T22:54:08.524Z,99677.91
2023-03-13T22:56:35.084Z,99668.59
2023-03-13T22:59:03.085Z,99675.06
2023-03-13T23:01:29.928Z,99667.16
2023-03-13T23:03:56.636Z,99666.75
2023-03-13T23:06:25.546Z,99665.56
2023-03-13T23:08:52.470Z,99658.38
2023-03-13T23:11:19.960Z,99663.97
2023-03-13T23:13:47.052Z,99661.16
2023-03-13T23:16:14.737Z,99664.09
2023-03-13T23:18:42.269Z,99638.25
2023-03-13T23:21:14.321Z,99650.94
2023-03-13T23:23:41.772Z,99652.72
2023-03-13T23:26:15.454Z,99648.44
2023-03-13T23:28:42.389Z,99645.09
2023-03-13T23:31:17.612Z,99636.66
2023-03-13T23:33:45.170Z,99638.03
2023-03-13T23:36:14.868Z,99626.50
2023-03-13T23:38:41.935Z,99627.38
2023-03-13T23:41:10.971Z,99637.91
2023-03-13T23:43:38.000Z,99630.41
2023-03-13T23:46:05.596Z,99628.25
2023-03-13T23:48:32.237Z,99631.97
2023-03-13T23:50:59.014Z,99624.13
2023-03-13T23:53:25.632Z,99636.53
2023-03-13T23:55:58.556Z,99629.03
2023-03-13T23:58:25.382Z,99626.28
